createdAt,value
2022-08-11T00:03:21.124Z,101921.13
2022-08-11T00:10:27.962Z,101919.38
2022-08-11T00:17:31.321Z,101923.72
2022-08-11T00:24:54.764Z,101924.66
2022-08-11T00:31:58.478Z,101927.63
2022-08-11T00:39:04.038Z,101918.34
2022-08-11T00:46:10.655Z,101921.78
2022-08-11T00:53:26.517Z,101933.31
2022-08-11T01:00:33.224Z,101926.91
2022-08-11T01:08:12.300Z,101925.97
2022-08-11T01:15:40.208Z,101934.09
2022-08-11T01:22:53.741Z,101933.16
2022-08-11T01:30:29.022Z,101934.09
2022-08-11T01:37:48.857Z,101941.59
2022-08-11T01:45:37.212Z,101937.38
2022-08-11T01:53:06.320Z,101932.53
2022-08-11T02:00:11.780Z,101920.91
2022-08-11T02:07:26.884Z,101928.91
2022-08-11T02:15:08.520Z,101925.19
2022-08-11T02:22:34.477Z,101913.38
2022-08-11T02:29:47.477Z,101923.38
2022-08-11T02:37:03.432Z,101924.00
2022-08-11T02:44:07.757Z,101922.19
2022-08-11T02:51:14.909Z,101920.56
2022-08-11T02:58:28.219Z,101913.97
2022-08-11T03:06:01.135Z,101917.50
2022-08-11T03:13:34.641Z,101923.97
2022-08-11T03:20:45.385Z,101915.50
2022-08-11T03:28:02.698Z,101921.31
2022-08-11T03:35:04.690Z,101925.44
2022-08-11T03:42:38.463Z,101926.31
2022-08-11T03:49:47.269Z,101924.19
2022-08-11T03:57:12.235Z,101926.44
2022-08-11T04:04:51.382Z,101923.31
2022-08-11T04:12:14.848Z,101920.84
2022-08-11T04:19:47.784Z,101923.06
2022-08-11T04:27:17.383Z,101923.91
2022-08-11T04:34:32.734Z,101931.41
2022-08-11T04:42:11.666Z,101938.00
2022-08-11T04:49:40.786Z,101924.41
2022-08-11T04:57:02.097Z,101942.47
2022-08-11T05:04:32.544Z,101936.88
2022-08-11T05:11:52.104Z,101939.84
2022-08-11T05:19:18.120Z,101938.13
2022-08-11T05:26:46.941Z,101946.72
2022-08-11T05:34:15.179Z,101950.56
2022-08-11T05:41:35.378Z,101957.22
2022-08-11T05:48:55.661Z,101959.16
2022-08-11T05:56:16.425Z,101962.47
2022-08-11T06:03:25.438Z,101961.06
2022-08-11T06:10:38.304Z,101965.03
2022-08-11T06:17:47.017Z,101970.00
2022-08-11T06:24:53.998Z,101974.97
2022-08-11T06:32:02.192Z,101973.97
2022-08-11T06:39:09.979Z,101977.81
2022-08-11T06:46:11.753Z,101968.03
2022-08-11T06:53:27.048Z,101966.19
2022-08-11T07:00:28.666Z,101971.09
2022-08-11T07:08:34.367Z,101960.22
2022-08-11T07:16:11.463Z,101954.63
2022-08-11T07:23:23.016Z,101951.19
2022-08-11T07:30:24.689Z,101946.03
2022-08-11T07:37:26.444Z,101938.81
2022-08-11T07:44:34.984Z,101939.75
2022-08-11T07:51:55.734Z,101935.13
2022-08-11T07:59:15.903Z,101935.94
2022-08-11T08:06:37.200Z,101932.16
2022-08-11T08:13:57.363Z,101935.44
2022-08-11T08:21:12.112Z,101934.94
2022-08-11T08:28:16.232Z,101925.97
2022-08-11T08:35:17.831Z,101924.97
2022-08-11T08:42:27.330Z,101920.97
2022-08-11T08:49:33.887Z,101922.34
2022-08-11T08:56:35.507Z,101912.72
2022-08-11T09:04:04.831Z,101912.03
2022-08-11T09:11:17.997Z,101902.25
2022-08-11T09:18:19.648Z,101900.78
2022-08-11T09:25:40.751Z,101896.84
2022-08-11T09:32:42.740Z,101899.38
2022-08-11T09:40:02.941Z,101887.56
2022-08-11T09:47:05.310Z,101881.63
2022-08-11T09:54:06.967Z,101881.81
2022-08-11T10:01:26.995Z,101863.28
2022-08-11T10:08:29.015Z,101858.16
2022-08-11T10:15:34.133Z,101852.22
2022-08-11T10:22:54.267Z,101847.16
2022-08-11T10:30:14.439Z,101832.75
2022-08-11T10:37:16.463Z,101842.13
2022-08-11T10:44:18.042Z,101825.75
2022-08-11T10:51:50.210Z,101820.03
2022-08-11T10:58:50.482Z,101807.75
2022-08-11T11:06:28.092Z,101817.19
2022-08-11T11:13:33.252Z,101807.94
2022-08-11T11:20:47.182Z,101800.72
2022-08-11T11:28:22.952Z,101796.53
2022-08-11T11:35:36.675Z,101779.53
2022-08-11T11:42:42.392Z,101775.41
2022-08-11T11:49:44.334Z,101774.38
2022-08-11T11:56:46.131Z,101771.91
2022-08-11T12:03:49.691Z,101767.00
2022-08-11T12:11:16.150Z,101756.59
2022-08-11T12:18:17.765Z,101744.13
2022-08-11T12:25:37.938Z,101742.13
2022-08-11T12:32:40.768Z,101741.00
2022-08-11T12:40:16.145Z,101733.84
2022-08-11T12:48:48.585Z,101719.03
2022-08-11T12:55:12.669Z,101703.63
2022-08-11T13:02:43.914Z,101696.44
2022-08-11T13:09:46.473Z,101681.66
2022-08-11T13:17:42.366Z,101684.16
2022-08-11T13:24:45.214Z,101670.94
2022-08-11T13:31:47.034Z,101669.19
2022-08-11T13:38:50.150Z,101664.91
2022-08-11T13:45:52.894Z,101659.53
2022-08-11T13:52:54.511Z,101656.47
2022-08-11T14:00:09.544Z,101651.66
2022-08-11T14:07:15.185Z,101647.03
2022-08-11T14:14:21.214Z,101652.91
2022-08-11T14:21:42.382Z,101630.63
2022-08-11T14:28:45.325Z,101634.53
2022-08-11T14:35:48.757Z,101624.16
2022-08-11T14:43:18.158Z,101623.19
2022-08-11T14:50:24.351Z,101617.28
2022-08-11T14:57:56.153Z,101628.06
2022-08-11T15:04:53.359Z,101603.91
2022-08-11T15:12:09.963Z,101597.28
2022-08-11T15:19:41.097Z,101602.75
2022-08-11T15:27:01.193Z,101593.03
2022-08-11T15:34:22.478Z,101584.13
2022-08-11T15:41:58.518Z,101586.72
2022-08-11T15:49:08.600Z,101593.81
2022-08-11T15:56:11.035Z,101579.88
2022-08-11T16:04:06.797Z,101577.16
2022-08-11T16:10:53.164Z,101576.28
2022-08-11T16:18:04.017Z,101564.22
2022-08-11T16:27:02.912Z,101566.84
2022-08-11T16:32:32.359Z,101559.63
2022-08-11T16:39:34.133Z,101562.19
2022-08-11T16:46:54.873Z,101563.06
2022-08-11T16:54:03.865Z,101575.31
2022-08-11T17:01:07.729Z,101572.19
2022-08-11T17:08:28.045Z,101566.44
2022-08-11T17:15:50.838Z,101562.09
2022-08-11T17:23:13.302Z,101557.97
2022-08-11T17:30:15.230Z,101568.63
2022-08-11T17:37:16.861Z,101566.78
2022-08-11T17:44:37.153Z,101558.91
2022-08-11T17:51:57.878Z,101570.94
2022-08-11T17:59:18.113Z,101564.47
2022-08-11T18:06:19.760Z,101569.84
2022-08-11T18:13:50.366Z,101584.63
2022-08-11T18:21:10.611Z,101583.72
2022-08-11T18:28:32.491Z,101592.63
2022-08-11T18:35:53.147Z,101591.69
2022-08-11T18:43:13.841Z,101599.25
2022-08-11T18:50:38.400Z,101600.00
2022-08-11T18:57:59.214Z,101606.66
2022-08-11T19:05:20.265Z,101604.06
2022-08-11T19:13:00.917Z,101617.94
2022-08-11T19:20:22.710Z,101619.31
2022-08-11T19:27:46.447Z,101620.84
2022-08-11T19:35:07.051Z,101620.06
2022-08-11T19:42:27.329Z,101621.63
2022-08-11T19:49:47.686Z,101617.97
2022-08-11T19:57:07.877Z,101611.09
2022-08-11T20:04:28.078Z,101613.22
2022-08-11T20:11:50.323Z,101629.38
2022-08-11T20:19:10.534Z,101631.31
2022-08-11T20:26:31.688Z,101633.06
2022-08-11T20:33:51.966Z,101638.78
2022-08-11T20:41:12.569Z,101642.75
2022-08-11T20:48:36.691Z,101646.91
2022-08-11T20:55:56.887Z,101660.56
2022-08-11T21:03:35.885Z,101654.09
2022-08-11T21:10:57.438Z,101663.72
2022-08-11T21:18:28.302Z,101670.59
2022-08-11T21:25:53.276Z,101669.47
2022-08-11T21:33:13.341Z,101673.91
2022-08-11T21:40:34.067Z,101679.38
2022-08-11T21:48:00.840Z,101676.38
2022-08-11T21:55:21.565Z,101677.13
2022-08-11T22:02:41.699Z,101681.16
2022-08-11T22:10:37.037Z,101683.47
2022-08-11T22:17:42.101Z,101684.91
2022-08-11T22:25:02.337Z,101679.66
2022-08-11T22:32:36.505Z,101674.69
2022-08-11T22:40:02.645Z,101671.13
2022-08-11T22:47:23.661Z,101672.22
2022-08-11T22:54:47.442Z,101680.72
2022-08-11T23:02:07.872Z,101685.44
2022-08-11T23:09:28.529Z,101691.88
2022-08-11T23:16:49.103Z,101689.78
2022-08-11T23:24:09.148Z,101687.41
2022-08-11T23:31:29.451Z,101692.22
2022-08-11T23:39:09.602Z,101696.59
2022-08-11T23:46:29.893Z,101699.25
2022-08-11T23:53:50.262Z,101692.19
